Afton, WY

2:14 PM MDT on August 28, 2016 (GMT -0600)
Afton Municipal

Weather History for KAFO - May, 2014

Change the Weather History Date:

Sunday, May 25, 2014

  Actual Average Record
Temperature  
Mean Temperature 51 °F -  
Max Temperature 69 °F 65 °F 69 °F (2014)
Min Temperature 33 °F 32 °F 33 °F (2014)
Degree Days  
Heating Degree Days 14    
Growing Degree Days 1 (Base 50)    
Moisture  
Dew Point 37 °F    
Average Humidity 64    
Maximum Humidity 100    
Minimum Humidity 23    
Precipitation  
Precipitation 0.00 in - - ()
Sea Level Pressure  
Sea Level Pressure 30.11 in    
Wind  
Wind Speed 2 mph (WNW)    
Max Wind Speed 10 mph    
Max Gust Speed -    
Visibility 9 miles    
Events Fog    
Averages and records for this station are not official NWS values.
T = Trace of Precipitation, MM = Missing Value Source: NWS Daily Summary

Daily Weather History Graph

Daily Weather History Graph

Search for Another Location

Airport or City:

Trip Planner

Search our weather history database for the weather conditions in past years. The results will help you decide how hot, cold, wet, or windy it might be!

Date:

Astronomy

May. 25, 2014 Rise Set
Actual Time 5:52 AM MDT 8:49 PM MDT
Civil Twilight 5:19 AM MDT 9:23 PM MDT
Nautical Twilight 4:36 AM MDT 10:05 PM MDT
Astronomical Twilight 3:46 AM MDT 10:56 PM MDT
Moon 4:03 AM MDT (5/25) 5:49 PM MDT (5/25)
Length of Visible Light 16h 04m
Length of Day
14h 56m
Waning Crescent, 10% of the Moon is Illuminated
May 25
Waning Crescent
May 28
New
Jun 5
First Quarter
Jun 12
Full
Jun 19
Last Quarter

Hourly Weather History & Observations

Time (MDT) Temp. Windchill Dew Point Humidity Pressure Visibility Wind Dir Wind Speed Gust Speed Precip Events Conditions
12:15 AM 41.0 °F - 37.4 °F 87% 30.12 in 10.0 mi Calm Calm - N/A   Scattered Clouds
12:35 AM 41.0 °F - 37.4 °F 87% 30.13 in 10.0 mi Calm Calm - N/A   Scattered Clouds
12:55 AM 42.8 °F 40.1 °F 39.2 °F 87% 30.14 in 10.0 mi South 4.6 mph - N/A   Clear
1:15 AM 41.0 °F - 37.4 °F 87% 30.14 in 10.0 mi Calm Calm - N/A   Clear
1:35 AM 37.4 °F - 35.6 °F 93% 30.14 in 10.0 mi Calm Calm - N/A   Clear
1:55 AM 37.4 °F - 35.6 °F 93% 30.14 in 10.0 mi Calm Calm - N/A   Clear
2:15 AM 37.4 °F - 37.4 °F 100% 30.14 in 10.0 mi Calm Calm - N/A   Clear
2:35 AM 39.2 °F - 37.4 °F 93% 30.14 in 10.0 mi Calm Calm - N/A   Clear
2:55 AM 39.2 °F 37.0 °F 35.6 °F 87% 30.14 in 10.0 mi SSW 3.5 mph - N/A   Clear
3:15 AM 37.4 °F 34.9 °F 35.6 °F 93% 30.13 in 10.0 mi SSE 3.5 mph - N/A   Clear
3:35 AM 37.4 °F - 35.6 °F 93% 30.14 in 10.0 mi Calm Calm - N/A   Clear
3:55 AM 35.6 °F - 35.6 °F 100% 30.14 in 10.0 mi Calm Calm - N/A   Clear
4:15 AM 37.4 °F - 35.6 °F 93% 30.14 in 10.0 mi Calm Calm - N/A   Clear
4:35 AM 37.4 °F 33.8 °F 35.6 °F 93% 30.13 in 10.0 mi SSE 4.6 mph - N/A   Clear
4:55 AM 35.6 °F - 33.8 °F 93% 30.13 in 10.0 mi Calm Calm - N/A   Clear
5:15 AM 33.8 °F - 33.8 °F 100% 30.14 in 10.0 mi Calm Calm - N/A   Clear
5:35 AM 35.6 °F - 33.8 °F 93% 30.13 in 10.0 mi Calm Calm - N/A   Clear
5:55 AM 35.6 °F - 33.8 °F 93% 30.14 in 10.0 mi Calm Calm - N/A   Clear
6:15 AM 33.8 °F 28.6 °F 32.0 °F 93% 30.14 in 10.0 mi South 5.8 mph - N/A   Scattered Clouds
6:35 AM 35.6 °F 32.8 °F 33.8 °F 93% 30.14 in 0.2 mi South 3.5 mph - N/A Fog Fog
6:55 AM 35.6 °F - 35.6 °F 100% 30.14 in 0.2 mi Calm Calm - N/A Fog Fog
7:15 AM 35.6 °F - 35.6 °F 100% 30.15 in 0.2 mi Calm Calm - N/A Fog Fog
7:35 AM 37.4 °F - 37.4 °F 100% 30.15 in 0.2 mi Calm Calm - N/A Fog Fog
7:55 AM 41.0 °F - 37.4 °F 87% 30.15 in 10.0 mi Calm Calm - N/A   Scattered Clouds
8:15 AM 41.0 °F - 39.2 °F 93% 30.16 in 10.0 mi Calm Calm - N/A   Scattered Clouds
9:15 AM 44.6 °F - 41.0 °F 87% 30.15 in 10.0 mi Calm Calm - N/A   Clear
9:35 AM 46.4 °F - 41.0 °F 81% 30.15 in 10.0 mi Calm Calm - N/A   Clear
9:55 AM 48.2 °F - 41.0 °F 76% 30.14 in 10.0 mi Calm Calm - N/A   Clear
10:15 AM 51.8 °F - 42.8 °F 71% 30.14 in 10.0 mi Calm Calm - N/A   Clear
10:35 AM 51.8 °F - 42.8 °F 71% 30.14 in 10.0 mi Calm Calm - N/A   Clear
10:55 AM 53.6 °F - 44.6 °F 72% 30.14 in 10.0 mi Calm Calm - N/A   Clear
11:15 AM 55.4 °F - 42.8 °F 63% 30.14 in 10.0 mi Calm Calm - N/A   Clear
11:35 AM 59.0 °F - 42.8 °F 55% 30.14 in 10.0 mi Calm Calm - N/A   Clear
11:55 AM 59.0 °F - 42.8 °F 55% 30.13 in 10.0 mi Calm Calm - N/A   Clear
12:15 PM 60.8 °F - 41.0 °F 48% 30.12 in 10.0 mi NNW 4.6 mph - N/A   Clear
12:35 PM 62.6 °F - 37.4 °F 39% 30.11 in 10.0 mi NNE 3.5 mph - N/A   Clear
12:55 PM 62.6 °F - 35.6 °F 37% 30.11 in 10.0 mi Calm Calm - N/A   Clear
1:15 PM 64.4 °F - 32.0 °F 30% 30.11 in 10.0 mi Calm Calm - N/A   Clear
1:35 PM 64.4 °F - 33.8 °F 32% 30.10 in 10.0 mi Calm Calm - N/A   Clear
1:55 PM 66.2 °F - 32.0 °F 28% 30.09 in 10.0 mi WNW 4.6 mph - N/A   Clear
2:15 PM 66.2 °F - 32.0 °F 28% 30.09 in 10.0 mi Calm Calm - N/A   Clear
2:35 PM 68.0 °F - 32.0 °F 26% 30.08 in 10.0 mi West 4.6 mph - N/A   Clear
2:55 PM 68.0 °F - 32.0 °F 26% 30.07 in 10.0 mi North 4.6 mph - N/A   Clear
3:15 PM 68.0 °F - 28.4 °F 23% 30.06 in 10.0 mi Calm Calm - N/A   Clear
3:35 PM 69.8 °F - 33.8 °F 27% 30.06 in 10.0 mi NNW 8.1 mph - N/A   Clear
3:55 PM 69.8 °F - 32.0 °F 25% 30.06 in 10.0 mi Calm Calm - N/A   Clear
4:15 PM 69.8 °F - 35.6 °F 28% 30.06 in 10.0 mi WNW 6.9 mph - N/A   Clear
4:35 PM 69.8 °F - 35.6 °F 28% 30.05 in 10.0 mi NW 5.8 mph - N/A   Clear
4:55 PM 69.8 °F - 37.4 °F 31% 30.05 in 10.0 mi North 8.1 mph - N/A   Clear
5:15 PM 69.8 °F - 35.6 °F 28% 30.05 in 10.0 mi NNW 6.9 mph - N/A   Clear
5:35 PM 69.8 °F - 39.2 °F 33% 30.05 in 10.0 mi NNW 9.2 mph - N/A   Clear
5:55 PM 69.8 °F - 37.4 °F 31% 30.04 in 10.0 mi NNW 8.1 mph - N/A   Clear
6:15 PM 69.8 °F - 37.4 °F 31% 30.05 in 10.0 mi NW 10.4 mph - N/A   Clear
6:35 PM 69.8 °F - 37.4 °F 31% 30.05 in 10.0 mi WNW 9.2 mph - N/A   Clear
6:55 PM 68.0 °F - 41.0 °F 37% 30.05 in 10.0 mi WNW 6.9 mph - N/A   Clear
7:15 PM 66.2 °F - 42.8 °F 43% 30.06 in 10.0 mi WNW 8.1 mph - N/A   Clear
7:35 PM 64.4 °F - 42.8 °F 45% 30.06 in 10.0 mi WNW 4.6 mph - N/A   Clear
7:55 PM 62.6 °F - 44.6 °F 52% 30.06 in 10.0 mi WNW 3.5 mph - N/A   Clear
8:15 PM 60.8 °F - 42.8 °F 52% 30.07 in 10.0 mi Calm Calm - N/A   Clear
8:35 PM 60.8 °F - 41.0 °F 48% 30.07 in 10.0 mi Calm Calm - N/A   Clear
9:15 PM 53.6 °F - 39.2 °F 58% 30.09 in 10.0 mi Calm Calm - N/A   Clear
9:35 PM 55.4 °F - 37.4 °F 51% 30.10 in 10.0 mi Calm Calm - N/A   Clear
9:55 PM 55.4 °F - 39.2 °F 54% 30.11 in 10.0 mi Calm Calm - N/A   Clear
10:15 PM 51.8 °F - 39.2 °F 62% 30.12 in 10.0 mi SSW 3.5 mph - N/A   Clear
10:35 PM 50.0 °F - 39.2 °F 66% 30.12 in 10.0 mi Calm Calm - N/A   Clear
10:55 PM 50.0 °F - 37.4 °F 62% 30.12 in 10.0 mi Calm Calm - N/A   Clear
11:15 PM 46.4 °F - 37.4 °F 71% 30.12 in 10.0 mi Calm Calm - N/A   Clear
11:35 PM 44.6 °F - 37.4 °F 76% 30.12 in 10.0 mi Calm Calm - N/A   Clear
11:55 PM 44.6 °F - 37.4 °F 76% 30.12 in 10.0 mi Calm Calm - N/A   Clear